createdAt,value
2023-05-02T00:00:25.945Z,11.09
2023-05-02T00:05:29.002Z,10.99
2023-05-02T00:10:32.265Z,10.93
2023-05-02T00:15:36.687Z,10.83
2023-05-02T00:20:41.276Z,10.82
2023-05-02T00:25:46.615Z,10.86
2023-05-02T00:30:51.067Z,10.78
2023-05-02T00:35:54.302Z,10.72
2023-05-02T00:40:57.838Z,10.84
2023-05-02T00:46:02.305Z,10.91
2023-05-02T00:51:06.499Z,10.96
2023-05-02T00:56:09.875Z,10.86
2023-05-02T01:01:27.895Z,10.86
2023-05-02T01:06:41.207Z,10.94
2023-05-02T01:11:50.140Z,10.93
2023-05-02T01:16:56.704Z,10.99
2023-05-02T01:22:01.183Z,10.93
2023-05-02T01:27:25.919Z,10.84
2023-05-02T01:32:33.570Z,10.88
2023-05-02T01:37:39.261Z,10.97
2023-05-02T01:42:43.700Z,11.02
2023-05-02T01:47:48.872Z,10.92
2023-05-02T01:52:54.730Z,10.85
2023-05-02T01:57:58.783Z,10.85
2023-05-02T02:03:04.155Z,10.82
2023-05-02T02:08:07.249Z,10.75
2023-05-02T02:13:18.306Z,10.65
2023-05-02T02:18:25.275Z,10.64
2023-05-02T02:23:30.246Z,10.63
2023-05-02T02:28:35.326Z,10.63
2023-05-02T02:33:40.000Z,10.62
2023-05-02T02:38:48.886Z,10.64
2023-05-02T02:44:03.250Z,10.58
2023-05-02T02:49:19.906Z,10.58
2023-05-02T02:54:30.731Z,10.45
2023-05-02T02:59:36.475Z,10.40
2023-05-02T03:04:45.198Z,10.35
2023-05-02T03:09:49.823Z,10.31
2023-05-02T03:15:08.140Z,10.15
2023-05-02T03:20:14.109Z,10.10
2023-05-02T03:25:17.375Z,10.04
2023-05-02T03:30:23.641Z,10.03
2023-05-02T03:35:28.453Z,9.96
2023-05-02T03:40:31.450Z,9.87
2023-05-02T03:45:35.771Z,9.65
2023-05-02T03:50:40.215Z,9.47
2023-05-02T03:55:44.481Z,9.36
2023-05-02T04:00:54.739Z,9.34
2023-05-02T04:06:00.426Z,9.55
2023-05-02T04:11:04.126Z,9.58
2023-05-02T04:16:08.020Z,9.52
2023-05-02T04:21:13.811Z,9.55
2023-05-02T04:26:18.870Z,9.63
2023-05-02T04:31:34.535Z,9.64
2023-05-02T04:36:39.267Z,9.58
2023-05-02T04:41:44.449Z,9.45
2023-05-02T04:46:47.607Z,9.30
2023-05-02T04:51:52.741Z,9.24
2023-05-02T04:56:57.964Z,9.33
2023-05-02T05:02:01.450Z,9.24
2023-05-02T05:07:05.936Z,9.20
2023-05-02T05:12:09.178Z,9.36
2023-05-02T05:17:13.733Z,9.59
2023-05-02T05:22:18.430Z,9.41
2023-05-02T05:27:22.150Z,9.68
2023-05-02T05:32:26.029Z,9.76
2023-05-02T05:37:31.501Z,9.89
2023-05-02T05:42:36.562Z,10.01
2023-05-02T05:47:45.123Z,10.07
2023-05-02T05:52:50.596Z,10.15
2023-05-02T05:57:54.198Z,10.42
2023-05-02T06:02:57.728Z,10.48
2023-05-02T06:08:05.321Z,10.65
2023-05-02T06:13:08.734Z,10.75
2023-05-02T06:18:16.370Z,10.60
2023-05-02T06:23:21.164Z,10.17
2023-05-02T06:28:24.282Z,9.89
2023-05-02T06:33:27.316Z,9.70
2023-05-02T06:38:31.629Z,9.64
2023-05-02T06:43:34.973Z,9.70
2023-05-02T06:48:37.929Z,10.11
2023-05-02T06:53:42.717Z,10.39
2023-05-02T06:58:45.835Z,10.28
2023-05-02T07:03:48.891Z,10.04
2023-05-02T07:08:53.271Z,9.80
2023-05-02T07:13:56.276Z,9.73
2023-05-02T07:18:59.440Z,9.71
2023-05-02T07:24:04.009Z,9.82
2023-05-02T07:29:09.783Z,10.11
2023-05-02T07:34:12.885Z,10.60
2023-05-02T07:39:17.439Z,10.61
2023-05-02T07:44:20.631Z,10.94
2023-05-02T07:49:23.571Z,11.25
2023-05-02T07:54:28.037Z,11.12
2023-05-02T07:59:32.161Z,11.29
2023-05-02T08:04:35.840Z,11.08
2023-05-02T08:09:40.481Z,11.58
2023-05-02T08:14:43.432Z,11.51
2023-05-02T08:19:46.697Z,11.52
2023-05-02T08:24:51.260Z,11.75
2023-05-02T08:29:54.400Z,11.93
2023-05-02T08:34:58.004Z,12.19
2023-05-02T08:40:03.170Z,12.55
2023-05-02T08:45:09.679Z,12.82
2023-05-02T08:50:13.030Z,13.09
2023-05-02T08:55:17.916Z,13.05
2023-05-02T09:00:21.325Z,12.80
2023-05-02T09:05:26.419Z,13.01
2023-05-02T09:10:32.593Z,12.83
2023-05-02T09:15:35.759Z,12.69
2023-05-02T09:20:44.641Z,13.02
2023-05-02T09:25:49.456Z,13.36
2023-05-02T09:30:52.702Z,14.06
2023-05-02T09:35:56.628Z,14.58
2023-05-02T09:41:03.366Z,14.77
2023-05-02T09:46:08.428Z,15.19
2023-05-02T09:51:21.163Z,15.72
2023-05-02T09:56:26.183Z,15.75
2023-05-02T10:01:29.692Z,16.46
2023-05-02T10:06:34.294Z,16.04
2023-05-02T10:11:41.034Z,15.78
2023-05-02T10:16:55.111Z,15.78
2023-05-02T10:22:00.585Z,15.07
2023-05-02T10:27:06.129Z,15.02
2023-05-02T10:32:10.515Z,15.95
2023-05-02T10:37:13.992Z,16.08
2023-05-02T10:42:21.215Z,15.55
2023-05-02T10:47:25.389Z,15.36
2023-05-02T10:52:30.437Z,15.04
2023-05-02T10:57:35.001Z,15.90
2023-05-02T11:02:52.958Z,15.36
2023-05-02T11:08:29.473Z,14.74
2023-05-02T11:13:51.828Z,15.81
2023-05-02T11:19:01.867Z,16.45
2023-05-02T11:24:41.716Z,15.98
2023-05-02T11:29:55.600Z,15.35
2023-05-02T11:34:59.076Z,15.13
2023-05-02T11:40:12.131Z,15.43
2023-05-02T11:45:17.030Z,15.71
2023-05-02T11:50:20.105Z,15.56
2023-05-02T11:55:23.502Z,15.76
2023-05-02T12:00:29.831Z,15.82
2023-05-02T12:05:33.492Z,15.92
2023-05-02T12:10:39.947Z,15.47
2023-05-02T12:15:44.863Z,15.10
2023-05-02T12:20:48.624Z,15.59
2023-05-02T12:25:51.671Z,15.90
2023-05-02T12:30:56.638Z,16.14
2023-05-02T12:36:08.149Z,16.09
2023-05-02T12:41:11.707Z,16.36
2023-05-02T12:46:17.411Z,15.51
2023-05-02T12:51:24.834Z,15.60
2023-05-02T12:56:32.534Z,15.11
2023-05-02T13:01:37.453Z,15.38
2023-05-02T13:06:40.936Z,15.30
2023-05-02T13:11:44.008Z,14.91
2023-05-02T13:16:50.577Z,15.21
2023-05-02T13:21:53.673Z,15.65
2023-05-02T13:26:56.572Z,15.86
2023-05-02T13:32:01.042Z,15.62
2023-05-02T13:37:04.354Z,16.03
2023-05-02T13:42:08.079Z,15.89
2023-05-02T13:47:12.641Z,15.88
2023-05-02T13:52:15.741Z,15.97
2023-05-02T13:57:18.732Z,15.96
2023-05-02T14:02:23.720Z,16.24
2023-05-02T14:07:26.858Z,16.90
2023-05-02T14:12:29.868Z,16.78
2023-05-02T14:17:34.439Z,15.80
2023-05-02T14:22:37.452Z,15.95
2023-05-02T14:27:40.516Z,16.00
2023-05-02T14:32:44.942Z,16.08
2023-05-02T14:37:48.449Z,15.97
2023-05-02T14:42:51.992Z,15.95
2023-05-02T14:47:57.885Z,15.52
2023-05-02T14:53:00.886Z,15.31
2023-05-02T14:58:03.821Z,15.11
2023-05-02T15:03:09.920Z,15.53
2023-05-02T15:08:13.151Z,15.54
2023-05-02T15:13:16.339Z,15.60
2023-05-02T15:18:21.587Z,15.49
2023-05-02T15:23:24.963Z,15.44
2023-05-02T15:28:28.014Z,15.56
2023-05-02T15:33:32.499Z,15.78
2023-05-02T15:38:39.681Z,15.57
2023-05-02T15:43:42.728Z,15.44
2023-05-02T15:48:47.151Z,15.50
2023-05-02T15:53:52.467Z,15.84
2023-05-02T15:58:55.688Z,15.73
2023-05-02T16:04:00.307Z,15.66
2023-05-02T16:09:03.873Z,15.49
2023-05-02T16:14:07.188Z,15.36
2023-05-02T16:19:13.453Z,16.16
2023-05-02T16:24:16.603Z,17.51
2023-05-02T16:29:19.554Z,17.98
2023-05-02T16:34:23.929Z,18.44
2023-05-02T16:39:27.547Z,19.01
2023-05-02T16:44:31.416Z,19.32
2023-05-02T16:49:36.025Z,18.80
2023-05-02T16:54:39.050Z,17.45
2023-05-02T16:59:42.169Z,16.61
2023-05-02T17:04:46.657Z,16.12
2023-05-02T17:09:54.581Z,15.75
2023-05-02T17:14:57.968Z,15.38
2023-05-02T17:20:02.729Z,15.09
2023-05-02T17:25:06.486Z,14.88
2023-05-02T17:30:10.864Z,14.81
2023-05-02T17:35:16.385Z,14.72
2023-05-02T17:40:20.324Z,14.56
2023-05-02T17:45:23.352Z,14.29
2023-05-02T17:50:30.073Z,14.24
2023-05-02T17:55:33.228Z,14.13
2023-05-02T18:00:36.461Z,14.04
2023-05-02T18:05:44.131Z,13.68
2023-05-02T18:10:47.773Z,13.66
2023-05-02T18:15:56.777Z,13.45
2023-05-02T18:21:01.761Z,13.30
2023-05-02T18:26:05.068Z,12.96
2023-05-02T18:31:08.167Z,12.72
2023-05-02T18:36:12.602Z,12.52
2023-05-02T18:41:16.253Z,12.21
2023-05-02T18:46:19.269Z,12.01
2023-05-02T18:51:23.806Z,11.65
2023-05-02T18:56:26.793Z,11.38
2023-05-02T19:01:30.170Z,11.19
2023-05-02T19:06:34.612Z,10.93
2023-05-02T19:11:37.801Z,10.75
2023-05-02T19:16:41.153Z,10.49
2023-05-02T19:21:48.400Z,10.28
2023-05-02T19:26:51.507Z,10.16
2023-05-02T19:31:54.531Z,9.99
2023-05-02T19:36:59.512Z,9.71
2023-05-02T19:42:03.288Z,9.58
2023-05-02T19:47:06.646Z,9.45
2023-05-02T19:52:11.158Z,9.38
2023-05-02T19:57:14.417Z,9.23
2023-05-02T20:02:17.898Z,9.12
2023-05-02T20:07:22.356Z,9.04
2023-05-02T20:12:25.491Z,8.92
2023-05-02T20:17:29.338Z,8.71
2023-05-02T20:22:34.728Z,8.69
2023-05-02T20:27:38.083Z,8.46
2023-05-02T20:32:41.192Z,8.37
2023-05-02T20:37:52.247Z,8.30
2023-05-02T20:42:56.895Z,8.26
2023-05-02T20:48:00.328Z,8.13
2023-05-02T20:53:05.573Z,8.00
2023-05-02T20:58:08.668Z,8.04
2023-05-02T21:03:11.729Z,7.96
2023-05-02T21:08:16.305Z,7.91
2023-05-02T21:13:19.459Z,7.82
2023-05-02T21:18:22.784Z,7.67
2023-05-02T21:23:27.244Z,7.61
2023-05-02T21:28:30.375Z,7.72
2023-05-02T21:33:33.346Z,7.61
2023-05-02T21:38:37.808Z,7.59
2023-05-02T21:43:41.497Z,7.55
2023-05-02T21:48:44.549Z,7.49
2023-05-02T21:53:49.762Z,7.44
2023-05-02T21:58:52.911Z,7.40
2023-05-02T22:03:55.924Z,7.29
2023-05-02T22:09:00.374Z,7.33
2023-05-02T22:14:03.457Z,7.29
2023-05-02T22:19:06.470Z,7.17
2023-05-02T22:24:11.219Z,7.25
2023-05-02T22:29:14.240Z,7.22
2023-05-02T22:34:17.540Z,7.14
2023-05-02T22:39:21.945Z,7.12
2023-05-02T22:44:24.981Z,7.13
2023-05-02T22:49:28.821Z,7.07
2023-05-02T22:54:33.269Z,7.00
2023-05-02T22:59:36.660Z,6.91
2023-05-02T23:04:39.733Z,6.88
2023-05-02T23:09:44.171Z,6.79
2023-05-02T23:14:47.283Z,6.75
2023-05-02T23:19:50.652Z,6.73
2023-05-02T23:24:55.103Z,6.61
2023-05-02T23:29:58.140Z,6.57
2023-05-02T23:35:01.948Z,6.54
2023-05-02T23:40:09.238Z,6.51
2023-05-02T23:45:13.374Z,6.37
2023-05-02T23:50:16.695Z,6.22
2023-05-02T23:55:21.133Z,6.17
